Pagina principale
METAR-TAF:

METAR-TAF

Aeroporti :

Kassel, Germania

latitudine: 51-24N, longitudine: 009-23E, altezza: 277 m

Osservazione

Il bollettino è stato emesso 32 minuti fa, alle 10:50 UTC
Vento 9 kt da est
Temperature 27°C
Umidità 48%
Pressione 1022 hPa
Visibilità 10 km o più
nessuna nube inferiore a 1500 m e nessun cumulonembo

METAR: EDVK 241050Z 08009KT CAVOK 27/15 Q1022

Ora: 13:22 (11:22 UTC)

Previsione

Il bollettino è stato emesso 3 ore e 22 minuti fa, alle 08:00 UTC
Previsione valida dal 24 alle 09 UTC al 24 alle 18 UTC
Vento 10 kt da est/sud-est
Visibilità 10 km o più
nessuna nube inferiore a 1500 m e nessun cumulonembo

TAF: EDVK 240800Z 2409/2418 11010KT CAVOK

Osservazioni e previsioni meteorologiche di più di 4000 aeroporti (messaggi METAR e TAF).

Le stazioni disponibili sono rappresentate dai dischi gialli e rossi sulla carta.

Puntare il mouse per vedere il nome della stazione.

Clicca sopra per visualizzare le osservazioni e previsioni meteorologiche.

Per cambiare la mappa : fare clic sui pulsanti verdi con una croce nera per ingrandire, il pulsante verde con un trattino per diminuire, o sulla freccia verde per le mappe adiacenti.


METAR-TAF: